Northern Mariner — WDD2558 — position and weather

sailwx.info

Track history (hours):
 
Tides and Currents Weather Stations Pressure Air Temp Water Temp Dewpoint Dewpoint Depression Visibility Wind Speed Wind Dir Waves Ship Positions

Northern Mariner

Owner: LMW Investmrnts Inc., San Diego, CA. More information available from US FCC via Universal Licensing System and Coast Guard Vessel Documentation Center.

Last reported at 2017-Sep-26 09:01 UTC. Time now 2017-Sep-26 09:34 UTC.
Position N 32°42' W 117°09'.

Length 21 m; draft 3 m.

Type: Towing. MMSI: 367116840.

Date/timePositionNaut miles runAvg speedWind from/ knotsBaromVisibWave heightAir tempDewpointWater temp
2017-Sep-26 09:01N 32°42' W 117°09'0 0.0
2017-Sep-26 09:00N 32°42' W 117°09'0 0.0
2017-Sep-26 08:30N 32°42' W 117°09'0 0.0
2017-Sep-26 07:59N 32°42' W 117°09'0 0.0
2017-Sep-26 07:30N 32°42' W 117°09'0 0.0
2017-Sep-26 07:00N 32°42' W 117°09'0 0.0
2017-Sep-26 06:31N 32°42' W 117°09'0 0.0
2017-Sep-26 06:00N 32°42' W 117°09'0 0.0
2017-Sep-26 05:30N 32°42' W 117°09'0 0.0
2017-Sep-26 05:00N 32°42' W 117°09'0 0.0
2017-Sep-26 04:30N 32°42' W 117°09'0 0.0
2017-Sep-26 04:00N 32°42' W 117°09'0 0.0
2017-Sep-26 03:31N 32°42' W 117°09'0 0.0
2017-Sep-26 03:00N 32°42' W 117°09'0 0.0
2017-Sep-26 02:30N 32°42' W 117°09'0 0.0
2017-Sep-26 01:43N 32°42' W 117°09'0 0.0
2017-Sep-26 00:32N 32°42' W 117°09'0 0.0
2017-Sep-26 00:22N 32°42' W 117°09'0 0.0
2017-Sep-25 20:27N 32°42' W 117°09'0 0.0
2017-Sep-25 18:58N 32°42' W 117°09'0 0.0
2017-Sep-25 18:29N 32°42' W 117°09'0 0.0
2017-Sep-25 18:00N 32°42' W 117°09'  
2017-Sep-21 21:21N 32°42' W 117°09'0 0.0
2017-Sep-21 19:56N 32°42' W 117°09'0 0.0
2017-Sep-21 16:32N 32°42' W 117°09'2 0.7
2017-Sep-21 12:52N 32°40' W 117°08'2 5.3
2017-Sep-21 12:26N 32°41' W 117°09'3 6.9
2017-Sep-21 12:00N 32°43' W 117°12'3 5.7
2017-Sep-21 11:30N 32°41' W 117°14'3 6.3
2017-Sep-21 11:00N 32°37' W 117°14'2 4.5
2017-Sep-21 10:30N 32°37' W 117°17'2 4.2
2017-Sep-21 10:00N 32°38' W 117°19'2 4.3
2017-Sep-21 09:30N 32°39' W 117°21'2 4.7
2017-Sep-21 09:00N 32°40' W 117°24'2 4.8
2017-Sep-21 08:30N 32°41' W 117°27'2 4.7
2017-Sep-21 08:00N 32°42' W 117°29'2 4.5
2017-Sep-21 07:31N 32°43' W 117°31'3 5.4
2017-Sep-21 07:00N 32°44' W 117°34'3 5.5
2017-Sep-21 06:30N 32°45' W 117°38'3 5.6
2017-Sep-21 06:00N 32°46' W 117°41'3 5.9
2017-Sep-21 05:30N 32°47' W 117°44'3 6.1
2017-Sep-21 05:00N 32°48' W 117°47'3 6.4
2017-Sep-21 04:30N 32°49' W 117°51'3 6.3
2017-Sep-21 04:00N 32°50' W 117°54'3 6.4
2017-Sep-21 03:30N 32°51' W 117°58'3 6.6
2017-Sep-21 03:00N 32°52' W 118°02'3 6.3
2017-Sep-21 02:30N 32°53' W 118°05'3 6.1
2017-Sep-21 02:00N 32°54' W 118°09'3 6.8
2017-Sep-21 01:29N 32°56' W 118°12'12 0.8
2017-Sep-20 11:26N 32°57' W 118°26'2 4.5
2017-Sep-20 10:54N 32°55' W 118°24'2 4.5
2017-Sep-20 10:28N 32°54' W 118°22'7 4.7
2017-Sep-20 08:55N 32°50' W 118°15'2 5.2
2017-Sep-20 08:28N 32°50' W 118°12'2 5.0
2017-Sep-20 07:59N 32°49' W 118°09'2 4.9
2017-Sep-20 07:31N 32°49' W 118°07'2 4.7
2017-Sep-20 07:00N 32°48' W 118°04'2 4.9
2017-Sep-20 06:30N 32°48' W 118°01'2 4.8
2017-Sep-20 06:00N 32°47' W 117°58'2 4.9
2017-Sep-20 05:30N 32°46' W 117°55'2 5.0
2017-Sep-20 05:00N 32°46' W 117°53'2 5.0
2017-Sep-20 04:30N 32°45' W 117°50'2 5.0
2017-Sep-20 04:00N 32°45' W 117°47'2 4.9
2017-Sep-20 03:30N 32°44' W 117°44'2 4.9
2017-Sep-20 03:00N 32°43' W 117°41'3 5.3
2017-Sep-20 02:30N 32°42' W 117°38'3 5.2
2017-Sep-20 02:00N 32°42' W 117°35'3 5.3
2017-Sep-20 01:30N 32°41' W 117°32'3 5.1
2017-Sep-20 01:00N 32°40' W 117°29'2 4.9
2017-Sep-20 00:30N 32°40' W 117°26'3 5.0
2017-Sep-20 00:00N 32°39' W 117°24'3 5.2
2017-Sep-19 23:30N 32°38' W 117°21'3 5.0
2017-Sep-19 23:00N 32°38' W 117°18'3 5.1
2017-Sep-19 22:30N 32°38' W 117°15'3 5.7
2017-Sep-19 22:00N 32°40' W 117°14'3 5.7
2017-Sep-19 21:30N 32°43' W 117°13'5 5.8
2017-Sep-19 20:34N 32°40' W 117°08'0 0.0
2017-Sep-19 12:48N 32°40' W 117°07'2 4.9
2017-Sep-19 12:24N 32°41' W 117°09'0 0.3
2017-Sep-19 11:09N 32°42' W 117°09'0 0.0
2017-Sep-19 08:53N 32°42' W 117°09'0 0.0
2017-Sep-19 08:28N 32°42' W 117°09'0 0.0
2017-Sep-19 07:54N 32°42' W 117°09'0 0.0
2017-Sep-19 07:28N 32°42' W 117°09'0 0.0
2017-Sep-19 07:00N 32°42' W 117°09'0 0.0
2017-Sep-19 06:30N 32°42' W 117°09'0 0.0
2017-Sep-19 06:00N 32°42' W 117°09'0 0.0
2017-Sep-19 05:29N 32°42' W 117°09'0 0.0
2017-Sep-19 05:00N 32°42' W 117°09'0 0.0
2017-Sep-19 04:30N 32°42' W 117°09'0 0.0
2017-Sep-19 04:00N 32°42' W 117°09'0 0.0
2017-Sep-19 03:30N 32°42' W 117°09'0 0.0
2017-Sep-19 02:56N 32°42' W 117°09'0 0.0
2017-Sep-19 01:26N 32°42' W 117°09'0 0.0
2017-Sep-18 22:01N 32°42' W 117°09'0 0.0
2017-Sep-18 21:45N 32°42' W 117°09'0 0.0
2017-Sep-18 21:08N 32°42' W 117°09'0 0.0
2017-Sep-18 20:56N 32°42' W 117°09'0 0.0
2017-Sep-18 20:30N 32°42' W 117°09'0 0.0
2017-Sep-18 19:49N 32°42' W 117°09'  
Track history (hours):
 
Tides and Currents Weather Stations Pressure Air Temp Water Temp Dewpoint Dewpoint Depression Visibility Wind Speed Wind Dir Waves Ship Positions

Northern Mariner

Owner: LMW Investmrnts Inc., San Diego, CA. More information available from US FCC via Universal Licensing System and Coast Guard Vessel Documentation Center.

Last reported at 2017-Sep-26 09:01 UTC. Time now 2017-Sep-26 09:34 UTC.
Position N 32°42' W 117°09'.

Length 21 m; draft 3 m.

Type: Towing. MMSI: 367116840.

Date/timePositionNaut miles runAvg speedWind from/ knotsBaromVisibWave heightAir tempDewpointWater temp
2017-Sep-26 09:01N 32°42' W 117°09'0 0.0
2017-Sep-26 09:00N 32°42' W 117°09'0 0.0
2017-Sep-26 08:30N 32°42' W 117°09'0 0.0
2017-Sep-26 07:59N 32°42' W 117°09'0 0.0
2017-Sep-26 07:30N 32°42' W 117°09'0 0.0
2017-Sep-26 07:00N 32°42' W 117°09'0 0.0
2017-Sep-26 06:31N 32°42' W 117°09'0 0.0
2017-Sep-26 06:00N 32°42' W 117°09'0 0.0
2017-Sep-26 05:30N 32°42' W 117°09'0 0.0
2017-Sep-26 05:00N 32°42' W 117°09'0 0.0
2017-Sep-26 04:30N 32°42' W 117°09'0 0.0
2017-Sep-26 04:00N 32°42' W 117°09'0 0.0
2017-Sep-26 03:31N 32°42' W 117°09'0 0.0
2017-Sep-26 03:00N 32°42' W 117°09'0 0.0
2017-Sep-26 02:30N 32°42' W 117°09'0 0.0
2017-Sep-26 01:43N 32°42' W 117°09'0 0.0
2017-Sep-26 00:32N 32°42' W 117°09'0 0.0
2017-Sep-26 00:22N 32°42' W 117°09'0 0.0
2017-Sep-25 20:27N 32°42' W 117°09'0 0.0
2017-Sep-25 18:58N 32°42' W 117°09'0 0.0
2017-Sep-25 18:29N 32°42' W 117°09'0 0.0
2017-Sep-25 18:00N 32°42' W 117°09'  
2017-Sep-21 21:21N 32°42' W 117°09'0 0.0
2017-Sep-21 19:56N 32°42' W 117°09'0 0.0
2017-Sep-21 16:32N 32°42' W 117°09'2 0.7
2017-Sep-21 12:52N 32°40' W 117°08'2 5.3
2017-Sep-21 12:26N 32°41' W 117°09'3 6.9
2017-Sep-21 12:00N 32°43' W 117°12'3 5.7
2017-Sep-21 11:30N 32°41' W 117°14'3 6.3
2017-Sep-21 11:00N 32°37' W 117°14'2 4.5
2017-Sep-21 10:30N 32°37' W 117°17'2 4.2
2017-Sep-21 10:00N 32°38' W 117°19'2 4.3
2017-Sep-21 09:30N 32°39' W 117°21'2 4.7
2017-Sep-21 09:00N 32°40' W 117°24'2 4.8
2017-Sep-21 08:30N 32°41' W 117°27'2 4.7
2017-Sep-21 08:00N 32°42' W 117°29'2 4.5
2017-Sep-21 07:31N 32°43' W 117°31'3 5.4
2017-Sep-21 07:00N 32°44' W 117°34'3 5.5
2017-Sep-21 06:30N 32°45' W 117°38'3 5.6
2017-Sep-21 06:00N 32°46' W 117°41'3 5.9
2017-Sep-21 05:30N 32°47' W 117°44'3 6.1
2017-Sep-21 05:00N 32°48' W 117°47'3 6.4
2017-Sep-21 04:30N 32°49' W 117°51'3 6.3
2017-Sep-21 04:00N 32°50' W 117°54'3 6.4
2017-Sep-21 03:30N 32°51' W 117°58'3 6.6
2017-Sep-21 03:00N 32°52' W 118°02'3 6.3
2017-Sep-21 02:30N 32°53' W 118°05'3 6.1
2017-Sep-21 02:00N 32°54' W 118°09'3 6.8
2017-Sep-21 01:29N 32°56' W 118°12'12 0.8
2017-Sep-20 11:26N 32°57' W 118°26'2 4.5
2017-Sep-20 10:54N 32°55' W 118°24'2 4.5
2017-Sep-20 10:28N 32°54' W 118°22'7 4.7
2017-Sep-20 08:55N 32°50' W 118°15'2 5.2
2017-Sep-20 08:28N 32°50' W 118°12'2 5.0
2017-Sep-20 07:59N 32°49' W 118°09'2 4.9
2017-Sep-20 07:31N 32°49' W 118°07'2 4.7
2017-Sep-20 07:00N 32°48' W 118°04'2 4.9
2017-Sep-20 06:30N 32°48' W 118°01'2 4.8
2017-Sep-20 06:00N 32°47' W 117°58'2 4.9
2017-Sep-20 05:30N 32°46' W 117°55'2 5.0
2017-Sep-20 05:00N 32°46' W 117°53'2 5.0
2017-Sep-20 04:30N 32°45' W 117°50'2 5.0
2017-Sep-20 04:00N 32°45' W 117°47'2 4.9
2017-Sep-20 03:30N 32°44' W 117°44'2 4.9
2017-Sep-20 03:00N 32°43' W 117°41'3 5.3
2017-Sep-20 02:30N 32°42' W 117°38'3 5.2
2017-Sep-20 02:00N 32°42' W 117°35'3 5.3
2017-Sep-20 01:30N 32°41' W 117°32'3 5.1
2017-Sep-20 01:00N 32°40' W 117°29'2 4.9
2017-Sep-20 00:30N 32°40' W 117°26'3 5.0
2017-Sep-20 00:00N 32°39' W 117°24'3 5.2
2017-Sep-19 23:30N 32°38' W 117°21'3 5.0
2017-Sep-19 23:00N 32°38' W 117°18'3 5.1
2017-Sep-19 22:30N 32°38' W 117°15'3 5.7
2017-Sep-19 22:00N 32°40' W 117°14'3 5.7
2017-Sep-19 21:30N 32°43' W 117°13'5 5.8
2017-Sep-19 20:34N 32°40' W 117°08'0 0.0
2017-Sep-19 12:48N 32°40' W 117°07'2 4.9
2017-Sep-19 12:24N 32°41' W 117°09'0 0.3
2017-Sep-19 11:09N 32°42' W 117°09'0 0.0
2017-Sep-19 08:53N 32°42' W 117°09'0 0.0
2017-Sep-19 08:28N 32°42' W 117°09'0 0.0
2017-Sep-19 07:54N 32°42' W 117°09'0 0.0
2017-Sep-19 07:28N 32°42' W 117°09'0 0.0
2017-Sep-19 07:00N 32°42' W 117°09'0 0.0
2017-Sep-19 06:30N 32°42' W 117°09'0 0.0
2017-Sep-19 06:00N 32°42' W 117°09'0 0.0
2017-Sep-19 05:29N 32°42' W 117°09'0 0.0
2017-Sep-19 05:00N 32°42' W 117°09'0 0.0
2017-Sep-19 04:30N 32°42' W 117°09'0 0.0
2017-Sep-19 04:00N 32°42' W 117°09'0 0.0
2017-Sep-19 03:30N 32°42' W 117°09'0 0.0
2017-Sep-19 02:56N 32°42' W 117°09'0 0.0
2017-Sep-19 01:26N 32°42' W 117°09'0 0.0
2017-Sep-18 22:01N 32°42' W 117°09'0 0.0
2017-Sep-18 21:45N 32°42' W 117°09'0 0.0
2017-Sep-18 21:08N 32°42' W 117°09'0 0.0
2017-Sep-18 20:56N 32°42' W 117°09'0 0.0
2017-Sep-18 20:30N 32°42' W 117°09'0 0.0
2017-Sep-18 19:49N 32°42' W 117°09'  

Dump ship's entire track history